Time;durP1;ratioP1;P1;durP2;ratioP2;P2;SDS_P1;SDS_P2;PMS_P1;PMS_P2;Temp;Humidity;BMP_temperature;BMP_pressure;BME280_temperature;BME280_humidity;BME280_pressure;Samples;Min_cycle;Max_cycle;Signal;HPM_P1;HPM_P2
2023/02/10 00:01:19;;;;;;;66.05;28.05;;;;;;;;;;4964498;28;20049;-59
2023/02/10 00:03:44;;;;;;;69.85;26.27;;;;;;;;;;4966049;28;20085;-60
2023/02/10 00:06:10;;;;;;;80.78;28.35;;;;;;;;;;4965297;28;20460;-60
2023/02/10 00:08:36;;;;;;;71.53;28.40;;;;;;;;;;4957403;28;20038;-60
2023/02/10 00:11:06;;;;;;;75.88;27.30;;;;;;;;;;4964519;28;20034;-59
2023/02/10 00:13:31;;;;;;;75.57;27.50;;;;;;;;;;4964278;28;20049;-60
2023/02/10 00:15:57;;;;;;;85.30;30.25;;;;;;;;;;4964468;28;20034;-60
2023/02/10 00:18:23;;;;;;;81.95;28.55;;;;;;;;;;4964493;28;20134;-58
2023/02/10 00:20:48;;;;;;;78.38;27.05;;;;;;;;;;4964229;28;20074;-60
2023/02/10 00:23:13;;;;;;;71.43;26.45;;;;;;;;;;4965148;28;20054;-61
2023/02/10 00:25:38;;;;;;;70.30;25.80;;;;;;;;;;4965365;28;20037;-60
2023/02/10 00:28:04;;;;;;;64.38;24.83;;;;;;;;;;4966538;28;20039;-60
2023/02/10 00:30:29;;;;;;;62.97;25.48;;;;;;;;;;4967701;28;20045;-61
2023/02/10 00:32:55;;;;;;;68.07;26.08;;;;;;;;;;4958705;28;20267;-60
2023/02/10 00:35:20;;;;;;;78.32;29.27;;;;;;;;;;4965447;28;20038;-61
2023/02/10 00:37:45;;;;;;;81.75;30.58;;;;;;;;;;4964942;28;20122;-61
2023/02/10 00:40:12;;;;;;;86.83;31.20;;;;;;;;;;4964883;28;20049;-59
2023/02/10 00:42:37;;;;;;;85.93;29.00;;;;;;;;;;4964866;28;20740;-59
2023/02/10 00:45:03;;;;;;;77.90;29.98;;;;;;;;;;4974991;28;20038;-60
2023/02/10 00:47:29;;;;;;;61.63;26.70;;;;;;;;;;4965094;28;20046;-60
2023/02/10 00:49:54;;;;;;;69.88;27.50;;;;;;;;;;4961899;28;20053;-59
2023/02/10 00:52:21;;;;;;;64.90;25.88;;;;;;;;;;4972951;28;20031;-59
2023/02/10 00:54:46;;;;;;;69.82;25.92;;;;;;;;;;4963750;28;20035;-59
2023/02/10 00:57:11;;;;;;;65.40;24.55;;;;;;;;;;4964223;28;20034;-59
2023/02/10 00:59:37;;;;;;;67.72;24.55;;;;;;;;;;4965477;28;20049;-59
2023/02/10 01:02:02;;;;;;;63.50;23.88;;;;;;;;;;4968671;28;20034;-60
2023/02/10 01:04:27;;;;;;;72.63;26.23;;;;;;;;;;4964876;28;20043;-59
2023/02/10 01:06:53;;;;;;;71.80;25.75;;;;;;;;;;4964983;28;20023;-60
2023/02/10 01:09:19;;;;;;;65.90;25.58;;;;;;;;;;4965047;28;20041;-60
2023/02/10 01:11:44;;;;;;;72.30;28.27;;;;;;;;;;4963230;28;20043;-59
2023/02/10 01:14:10;;;;;;;72.82;27.40;;;;;;;;;;4964666;28;20090;-60
2023/02/10 01:16:35;;;;;;;80.70;28.05;;;;;;;;;;4964811;28;20031;-59
2023/02/10 01:19:01;;;;;;;85.85;29.48;;;;;;;;;;4962741;28;20121;-59
2023/02/10 01:21:26;;;;;;;80.03;29.42;;;;;;;;;;4963965;28;20455;-59
2023/02/10 01:23:51;;;;;;;75.60;28.10;;;;;;;;;;4962890;28;20046;-61
2023/02/10 01:26:16;;;;;;;82.28;28.08;;;;;;;;;;4964310;28;20081;-60
2023/02/10 01:28:42;;;;;;;66.30;26.80;;;;;;;;;;4963921;28;20434;-62
2023/02/10 01:31:08;;;;;;;77.53;26.98;;;;;;;;;;4978409;28;20045;-59
2023/02/10 01:33:36;;;;;;;70.93;25.83;;;;;;;;;;4965085;28;20063;-59
2023/02/10 01:36:04;;;;;;;79.30;28.67;;;;;;;;;;4964809;28;20130;-60
2023/02/10 01:38:30;;;;;;;70.22;25.98;;;;;;;;;;4965805;28;20038;-58
2023/02/10 01:40:55;;;;;;;72.28;25.13;;;;;;;;;;4964324;28;20370;-59
2023/02/10 01:43:20;;;;;;;64.03;24.35;;;;;;;;;;4950536;28;20777;-59
2023/02/10 01:45:46;;;;;;;63.88;25.45;;;;;;;;;;4963386;28;20031;-60
2023/02/10 01:48:12;;;;;;;65.55;24.27;;;;;;;;;;4963870;28;20065;-60
2023/02/10 01:50:39;;;;;;;77.15;26.85;;;;;;;;;;4964176;28;20030;-58
2023/02/10 01:53:05;;;;;;;66.93;27.63;;;;;;;;;;4965129;28;20045;-58
2023/02/10 01:55:34;;;;;;;67.00;23.25;;;;;;;;;;4965300;28;20046;-60
2023/02/10 01:58:01;;;;;;;65.15;23.25;;;;;;;;;;4963617;28;20459;-60
2023/02/10 02:00:26;;;;;;;61.33;25.48;;;;;;;;;;4963317;28;20050;-60
2023/02/10 02:02:53;;;;;;;62.85;24.52;;;;;;;;;;4961709;28;20042;-59
2023/02/10 02:05:20;;;;;;;61.92;24.48;;;;;;;;;;4962083;28;20117;-59
2023/02/10 02:07:47;;;;;;;;;;;;;;;;;;4962271;28;20018;-59
2023/02/10 02:10:13;;;;;;;55.13;21.98;;;;;;;;;;4962374;28;19914;-60
2023/02/10 02:12:54;;;;;;;66.85;23.73;;;;;;;;;;4963809;28;20034;-59
2023/02/10 02:15:22;;;;;;;66.07;24.40;;;;;;;;;;4949093;28;20034;-59
2023/02/10 02:17:47;;;;;;;62.35;22.20;;;;;;;;;;4961511;28;20054;-59
2023/02/10 02:23:12;;;;;;;62.25;24.33;;;;;;;;;;4963238;28;20476;-59
2023/02/10 02:25:37;;;;;;;69.03;24.23;;;;;;;;;;4965645;28;20399;-59
2023/02/10 02:28:06;;;;;;;70.05;25.10;;;;;;;;;;4962244;28;20041;-59
2023/02/10 02:30:40;;;;;;;64.75;24.73;;;;;;;;;;4964534;28;20045;-59
2023/02/10 02:33:18;;;;;;;79.85;27.38;;;;;;;;;;4977537;28;20063;-59
2023/02/10 02:35:45;;;;;;;80.80;26.05;;;;;;;;;;4965895;28;20109;-59
2023/02/10 02:38:10;;;;;;;69.70;26.00;;;;;;;;;;4963133;28;20424;-61
2023/02/10 02:40:36;;;;;;;79.70;26.15;;;;;;;;;;4962066;28;20479;-58
2023/02/10 02:43:02;;;;;;;70.05;26.52;;;;;;;;;;4963326;28;20104;-58
2023/02/10 02:45:35;;;;;;;70.35;26.05;;;;;;;;;;4964541;28;20538;-61
2023/02/10 02:48:00;;;;;;;69.28;25.63;;;;;;;;;;4963455;28;20042;-60
2023/02/10 02:50:28;;;;;;;63.15;25.35;;;;;;;;;;4963396;28;20047;-60
2023/02/10 02:53:03;;;;;;;69.05;26.73;;;;;;;;;;4960933;28;20034;-61
2023/02/10 02:55:46;;;;;;;63.05;25.45;;;;;;;;;;4964295;28;20034;-59
2023/02/10 02:58:30;;;;;;;105.72;37.38;;;;;;;;;;4963346;28;20035;-59
2023/02/10 03:01:00;;;;;;;77.28;26.48;;;;;;;;;;4954625;28;20115;-60
2023/02/10 03:03:33;;;;;;;68.82;25.50;;;;;;;;;;4961461;28;20431;-61
2023/02/10 03:05:59;;;;;;;73.22;24.58;;;;;;;;;;4963169;28;20080;-59
2023/02/10 03:08:24;;;;;;;69.82;25.10;;;;;;;;;;4961851;28;20047;-59
2023/02/10 03:10:50;;;;;;;68.22;24.92;;;;;;;;;;4964764;28;20046;-59
2023/02/10 03:13:16;;;;;;;59.20;24.38;;;;;;;;;;4962922;28;20031;-60
2023/02/10 03:15:42;;;;;;;60.10;22.83;;;;;;;;;;4961043;28;20035;-59
2023/02/10 03:18:07;;;;;;;60.75;24.92;;;;;;;;;;4963318;28;20480;-61
2023/02/10 03:20:32;;;;;;;67.38;24.73;;;;;;;;;;4955571;28;20047;-59
2023/02/10 03:22:58;;;;;;;64.30;24.20;;;;;;;;;;4962778;28;20540;-60
2023/02/10 03:25:23;;;;;;;62.85;24.20;;;;;;;;;;4965186;28;20030;-57
2023/02/10 03:27:48;;;;;;;74.78;25.05;;;;;;;;;;4962653;28;20510;-61
2023/02/10 03:30:14;;;;;;;68.40;25.55;;;;;;;;;;4962666;28;20043;-60
2023/02/10 03:32:39;;;;;;;65.70;25.45;;;;;;;;;;4963017;28;20034;-59
2023/02/10 03:35:04;;;;;;;61.15;25.30;;;;;;;;;;4964749;28;20026;-59
2023/02/10 03:37:30;;;;;;;60.92;24.33;;;;;;;;;;4964718;28;20058;-60
2023/02/10 03:39:55;;;;;;;68.00;25.70;;;;;;;;;;4960819;28;20108;-60
2023/02/10 03:42:20;;;;;;;69.60;25.27;;;;;;;;;;4963365;28;20034;-60
2023/02/10 03:44:46;;;;;;;65.60;25.50;;;;;;;;;;4963068;28;20117;-59
2023/02/10 03:47:11;;;;;;;61.33;25.05;;;;;;;;;;4965118;28;20031;-59
2023/02/10 03:49:36;;;;;;;75.15;26.85;;;;;;;;;;4961610;28;20038;-61
2023/02/10 03:52:01;;;;;;;63.67;25.48;;;;;;;;;;4962702;28;20606;-59
2023/02/10 03:54:27;;;;;;;67.90;25.38;;;;;;;;;;4961981;28;20182;-59
2023/02/10 03:56:52;;;;;;;61.25;22.48;;;;;;;;;;4962657;28;20089;-60
2023/02/10 03:59:18;;;;;;;59.35;23.38;;;;;;;;;;4964059;28;20035;-60
2023/02/10 04:01:43;;;;;;;73.15;23.65;;;;;;;;;;4962274;28;20491;-59
2023/02/10 04:04:08;;;;;;;61.35;24.65;;;;;;;;;;4964574;28;20023;-58
2023/02/10 04:06:34;;;;;;;63.35;23.73;;;;;;;;;;4962347;28;20059;-59
2023/02/10 04:08:59;;;;;;;63.45;22.58;;;;;;;;;;4962061;28;20054;-58
2023/02/10 04:11:25;;;;;;;48.05;21.25;;;;;;;;;;4963681;28;20074;-58
2023/02/10 04:13:50;;;;;;;66.80;24.33;;;;;;;;;;4965003;28;20035;-59
2023/02/10 04:16:16;;;;;;;60.15;24.00;;;;;;;;;;4962287;28;20101;-59
2023/02/10 04:18:42;;;;;;;72.20;24.93;;;;;;;;;;4962817;28;20034;-60
2023/02/10 04:21:08;;;;;;;59.60;22.55;;;;;;;;;;4957298;28;20045;-60
2023/02/10 04:23:33;;;;;;;62.15;22.60;;;;;;;;;;4955168;28;20122;-60
2023/02/10 04:25:59;;;;;;;64.72;22.98;;;;;;;;;;4962894;28;20094;-59
2023/02/10 04:28:24;;;;;;;63.60;22.20;;;;;;;;;;4961541;28;20026;-59
2023/02/10 04:30:50;;;;;;;61.58;23.35;;;;;;;;;;4964636;28;20121;-59
2023/02/10 04:33:16;;;;;;;51.67;21.00;;;;;;;;;;4961533;28;20035;-59
2023/02/10 04:35:41;;;;;;;70.93;23.92;;;;;;;;;;4964335;28;20026;-59
2023/02/10 04:38:06;;;;;;;66.47;22.58;;;;;;;;;;4958439;28;20158;-59
2023/02/10 04:40:31;;;;;;;56.28;22.42;;;;;;;;;;4970265;28;20046;-59
2023/02/10 04:42:57;;;;;;;64.00;22.23;;;;;;;;;;4966775;28;20031;-58
2023/02/10 04:45:22;;;;;;;61.85;22.52;;;;;;;;;;4965701;28;20526;-58
2023/02/10 04:47:48;;;;;;;61.58;22.02;;;;;;;;;;4967737;28;20124;-59
2023/02/10 04:50:13;;;;;;;67.60;23.48;;;;;;;;;;4967610;28;20117;-58
2023/02/10 04:52:38;;;;;;;61.92;21.95;;;;;;;;;;4965199;28;20376;-59
2023/02/10 04:55:04;;;;;;;57.22;21.73;;;;;;;;;;4967149;28;20026;-60
2023/02/10 04:57:29;;;;;;;64.10;24.13;;;;;;;;;;4965699;28;20027;-59
2023/02/10 04:59:54;;;;;;;81.75;28.83;;;;;;;;;;4963841;28;20067;-59
2023/02/10 05:02:19;;;;;;;81.55;27.92;;;;;;;;;;4966535;28;20038;-59
2023/02/10 05:04:45;;;;;;;79.90;28.67;;;;;;;;;;4964900;28;20481;-60
2023/02/10 05:07:10;;;;;;;66.57;24.73;;;;;;;;;;4965732;28;20031;-60
2023/02/10 05:09:36;;;;;;;69.50;25.25;;;;;;;;;;4966072;28;20145;-59
2023/02/10 05:12:01;;;;;;;66.28;24.20;;;;;;;;;;4965561;28;20068;-60
2023/02/10 05:14:26;;;;;;;58.20;21.25;;;;;;;;;;4965334;28;20027;-59
2023/02/10 05:16:52;;;;;;;62.58;23.80;;;;;;;;;;4968360;28;20034;-59
2023/02/10 05:19:17;;;;;;;76.57;26.95;;;;;;;;;;4966691;28;20035;-58
2023/02/10 05:21:42;;;;;;;66.85;25.17;;;;;;;;;;4964737;28;20758;-61
2023/02/10 05:24:08;;;;;;;57.92;22.80;;;;;;;;;;4979263;28;20047;-58
2023/02/10 05:26:33;;;;;;;56.30;23.23;;;;;;;;;;4964170;28;20516;-58
2023/02/10 05:28:58;;;;;;;58.75;23.13;;;;;;;;;;4969689;28;20065;-59
2023/02/10 05:31:23;;;;;;;67.20;23.77;;;;;;;;;;4965746;28;20045;-58
2023/02/10 05:33:49;;;;;;;70.45;26.13;;;;;;;;;;4962139;28;20085;-59
2023/02/10 05:36:14;;;;;;;62.88;22.92;;;;;;;;;;4964440;28;20337;-58
2023/02/10 05:39:22;;;;;;;60.30;24.55;;;;;;;;;;4965614;28;20427;-59
2023/02/10 05:41:25;;;;;;;63.95;23.60;;;;;;;;;;4966118;28;20480;-59
2023/02/10 05:43:50;;;;;;;64.88;23.35;;;;;;;;;;4963023;28;20034;-58
2023/02/10 05:46:15;;;;;;;70.47;25.15;;;;;;;;;;4964036;28;20034;-59
2023/02/10 05:48:40;;;;;;;69.72;24.73;;;;;;;;;;4964115;28;20081;-59
2023/02/10 05:51:06;;;;;;;63.65;24.35;;;;;;;;;;4963361;28;20460;-59
2023/02/10 05:53:31;;;;;;;76.50;25.23;;;;;;;;;;4958098;28;20039;-59
2023/02/10 05:55:56;;;;;;;69.88;24.20;;;;;;;;;;4965567;28;20138;-58
2023/02/10 05:58:21;;;;;;;65.80;25.73;;;;;;;;;;4962629;28;20479;-59
2023/02/10 06:00:47;;;;;;;65.03;22.58;;;;;;;;;;4962458;28;20046;-60
2023/02/10 06:03:12;;;;;;;63.67;24.02;;;;;;;;;;4962460;28;20488;-61
2023/02/10 06:05:39;;;;;;;69.10;22.90;;;;;;;;;;4963727;28;20031;-60
2023/02/10 06:08:04;;;;;;;67.90;24.58;;;;;;;;;;4958812;28;20034;-59
2023/02/10 06:10:29;;;;;;;66.70;22.88;;;;;;;;;;4956717;28;20036;-59
2023/02/10 06:12:54;;;;;;;64.05;22.58;;;;;;;;;;4961025;28;20141;-59
2023/02/10 06:15:20;;;;;;;66.72;22.83;;;;;;;;;;4961837;28;20994;-60
2023/02/10 06:17:45;;;;;;;70.13;22.75;;;;;;;;;;4960661;28;20046;-60
2023/02/10 06:20:11;;;;;;;58.10;20.75;;;;;;;;;;4959478;28;20051;-61
2023/02/10 06:22:36;;;;;;;61.63;23.67;;;;;;;;;;4961883;28;20050;-61
2023/02/10 06:25:01;;;;;;;71.43;26.08;;;;;;;;;;4948748;28;20035;-58
2023/02/10 06:27:26;;;;;;;61.60;21.73;;;;;;;;;;4966704;28;20463;-58
2023/02/10 06:29:52;;;;;;;70.55;24.17;;;;;;;;;;4963437;28;20557;-61
2023/02/10 06:32:17;;;;;;;65.60;23.45;;;;;;;;;;4960015;28;20137;-58
2023/02/10 06:34:42;;;;;;;52.95;23.42;;;;;;;;;;4964293;28;20113;-61
2023/02/10 06:37:08;;;;;;;61.50;22.85;;;;;;;;;;4965779;28;20126;-60
2023/02/10 06:39:33;;;;;;;72.95;23.70;;;;;;;;;;4962351;28;20038;-60
2023/02/10 06:41:59;;;;;;;66.97;23.52;;;;;;;;;;4962380;28;20503;-61
2023/02/10 06:44:24;;;;;;;63.10;23.02;;;;;;;;;;4963032;28;20037;-61
2023/02/10 06:46:50;;;;;;;68.75;24.05;;;;;;;;;;4964758;28;20027;-60
2023/02/10 06:49:15;;;;;;;66.40;23.67;;;;;;;;;;4963002;28;20300;-60
2023/02/10 06:51:40;;;;;;;55.05;21.05;;;;;;;;;;4964562;28;20129;-59
2023/02/10 06:54:06;;;;;;;61.83;22.50;;;;;;;;;;4948039;28;20069;-60
2023/02/10 06:56:31;;;;;;;67.78;22.90;;;;;;;;;;4966430;28;20035;-60
2023/02/10 06:58:56;;;;;;;53.22;21.88;;;;;;;;;;4964231;28;20045;-60
2023/02/10 07:01:21;;;;;;;64.20;22.20;;;;;;;;;;4961787;28;20482;-60
2023/02/10 07:03:47;;;;;;;61.38;24.48;;;;;;;;;;4963287;28;20026;-60
2023/02/10 07:06:12;;;;;;;57.33;22.42;;;;;;;;;;4962648;28;20027;-59
2023/02/10 07:08:37;;;;;;;60.22;21.92;;;;;;;;;;4964051;28;20074;-59
2023/02/10 07:11:03;;;;;;;59.65;21.90;;;;;;;;;;4963952;28;20035;-59
2023/02/10 07:13:28;;;;;;;61.80;23.90;;;;;;;;;;4957885;28;20118;-59
2023/02/10 07:15:53;;;;;;;65.80;23.80;;;;;;;;;;4964010;28;20038;-59
2023/02/10 07:18:19;;;;;;;62.15;23.88;;;;;;;;;;4961202;28;20432;-58
2023/02/10 07:20:45;;;;;;;75.53;24.17;;;;;;;;;;4962278;28;20118;-59
2023/02/10 07:23:10;;;;;;;72.82;23.90;;;;;;;;;;4968808;28;20030;-59
2023/02/10 07:25:35;;;;;;;58.50;23.88;;;;;;;;;;4954199;28;20581;-60
2023/02/10 07:28:00;;;;;;;69.43;25.45;;;;;;;;;;4961344;28;20125;-58
2023/02/10 07:30:26;;;;;;;54.35;23.67;;;;;;;;;;4962425;28;20027;-60
2023/02/10 07:32:52;;;;;;;63.10;24.00;;;;;;;;;;4960952;28;20054;-59
2023/02/10 07:35:18;;;;;;;69.63;25.00;;;;;;;;;;4959455;28;20942;-59
2023/02/10 07:37:43;;;;;;;77.32;27.45;;;;;;;;;;4960381;28;20042;-60
2023/02/10 07:40:09;;;;;;;81.47;28.75;;;;;;;;;;4955808;28;20054;-61
2023/02/10 07:42:34;;;;;;;72.97;28.77;;;;;;;;;;4963442;28;20031;-58
2023/02/10 07:45:19;;;;;;;85.90;31.67;;;;;;;;;;4961011;28;20027;-63
2023/02/10 07:47:45;;;;;;;95.85;34.67;;;;;;;;;;4959845;28;20050;-60
2023/02/10 07:50:10;;;;;;;92.78;32.22;;;;;;;;;;4962951;28;20480;-61
2023/02/10 07:52:41;;;;;;;98.00;33.00;;;;;;;;;;4960770;28;20069;-59
2023/02/10 07:55:09;;;;;;;105.82;36.05;;;;;;;;;;4961285;28;20026;-58
2023/02/10 07:57:38;;;;;;;107.63;34.63;;;;;;;;;;4962242;28;20578;-58
2023/02/10 08:00:04;;;;;;;104.75;35.33;;;;;;;;;;4962970;28;20110;-59
2023/02/10 08:02:38;;;;;;;101.07;36.42;;;;;;;;;;4966662;28;20031;-60
2023/02/10 08:05:03;;;;;;;118.60;41.45;;;;;;;;;;4966637;28;20613;-59
2023/02/10 08:07:29;;;;;;;141.63;41.80;;;;;;;;;;4964393;28;20114;-60
2023/02/10 08:09:54;;;;;;;122.38;38.60;;;;;;;;;;4963823;28;20026;-59
2023/02/10 08:12:19;;;;;;;121.13;40.17;;;;;;;;;;4963434;28;20034;-61
2023/02/10 08:14:45;;;;;;;199.82;55.53;;;;;;;;;;4966994;28;20039;-60
2023/02/10 08:17:10;;;;;;;131.57;41.83;;;;;;;;;;4963021;28;20035;-60
2023/02/10 08:19:36;;;;;;;123.75;41.38;;;;;;;;;;4964898;28;20073;-59
2023/02/10 08:22:02;;;;;;;114.35;38.53;;;;;;;;;;4966155;28;20035;-60
2023/02/10 08:24:27;;;;;;;117.22;40.13;;;;;;;;;;4963923;28;20039;-60
2023/02/10 08:26:52;;;;;;;115.50;40.28;;;;;;;;;;4963906;28;20039;-59
2023/02/10 08:29:18;;;;;;;97.05;36.75;;;;;;;;;;4960595;28;20558;-59
2023/02/10 08:31:43;;;;;;;107.32;38.95;;;;;;;;;;4964408;28;20145;-60
2023/02/10 08:34:16;;;;;;;113.60;38.17;;;;;;;;;;4964583;28;20494;-58
2023/02/10 08:36:42;;;;;;;91.95;34.13;;;;;;;;;;4959960;28;20559;-59
2023/02/10 08:39:07;;;;;;;109.03;38.20;;;;;;;;;;4966893;28;20034;-61
2023/02/10 08:41:33;;;;;;;110.15;43.15;;;;;;;;;;4967192;28;20042;-59
2023/02/10 08:43:58;;;;;;;147.50;53.65;;;;;;;;;;4965045;28;20027;-59
2023/02/10 08:46:23;;;;;;;127.80;48.53;;;;;;;;;;4965281;28;20042;-59
2023/02/10 08:48:49;;;;;;;120.57;45.15;;;;;;;;;;4966767;28;20949;-59
2023/02/10 08:51:15;;;;;;;118.80;44.40;;;;;;;;;;4963488;28;20034;-59
2023/02/10 08:53:40;;;;;;;119.68;43.72;;;;;;;;;;4965624;28;20031;-59
2023/02/10 08:56:07;;;;;;;125.07;42.58;;;;;;;;;;4969059;28;20085;-59
2023/02/10 08:58:33;;;;;;;124.45;42.90;;;;;;;;;;4967338;28;20038;-59
2023/02/10 09:00:58;;;;;;;122.05;43.15;;;;;;;;;;4966523;28;20743;-59
2023/02/10 09:03:23;;;;;;;127.43;44.97;;;;;;;;;;4964690;28;20119;-60
2023/02/10 09:05:49;;;;;;;110.25;40.05;;;;;;;;;;4969557;28;20030;-59
2023/02/10 09:08:15;;;;;;;122.18;44.00;;;;;;;;;;4967666;28;20031;-58
2023/02/10 09:10:41;;;;;;;127.18;46.88;;;;;;;;;;4965092;28;20058;-60
2023/02/10 09:13:08;;;;;;;127.28;47.15;;;;;;;;;;4959285;28;20038;-59
2023/02/10 09:15:36;;;;;;;133.57;47.50;;;;;;;;;;4964661;28;20034;-58
2023/02/10 09:18:01;;;;;;;131.98;46.20;;;;;;;;;;4963042;28;20062;-60
2023/02/10 09:20:27;;;;;;;133.27;47.25;;;;;;;;;;4963103;28;20109;-60
2023/02/10 09:22:52;;;;;;;130.02;48.03;;;;;;;;;;4963989;28;20038;-59
2023/02/10 09:25:17;;;;;;;132.75;49.85;;;;;;;;;;4966404;28;20138;-59
2023/02/10 09:27:43;;;;;;;135.10;50.40;;;;;;;;;;4967219;28;20142;-60
2023/02/10 09:30:08;;;;;;;127.13;47.92;;;;;;;;;;4966984;28;20035;-59
2023/02/10 09:32:33;;;;;;;132.57;50.85;;;;;;;;;;4967189;28;20034;-60
2023/02/10 09:34:59;;;;;;;140.52;50.40;;;;;;;;;;4964256;28;20031;-59
2023/02/10 09:37:24;;;;;;;120.22;45.13;;;;;;;;;;4967815;28;20089;-59
2023/02/10 09:39:50;;;;;;;118.22;47.63;;;;;;;;;;4965117;28;20113;-59
2023/02/10 09:42:34;;;;;;;129.13;46.45;;;;;;;;;;4967338;28;20129;-60
2023/02/10 09:45:02;;;;;;;118.25;44.03;;;;;;;;;;4967287;28;20069;-61
2023/02/10 09:47:38;;;;;;;126.20;44.10;;;;;;;;;;4965948;28;20113;-59
2023/02/10 09:50:04;;;;;;;135.07;45.30;;;;;;;;;;4966578;28;20035;-59
2023/02/10 09:52:42;;;;;;;121.57;48.22;;;;;;;;;;4966457;28;20026;-60
2023/02/10 09:55:13;;;;;;;128.27;50.70;;;;;;;;;;4969799;28;20121;-59
2023/02/10 09:57:47;;;;;;;139.32;49.40;;;;;;;;;;4966761;28;20042;-59
2023/02/10 10:00:18;;;;;;;123.78;44.17;;;;;;;;;;4965958;28;20042;-59
2023/02/10 10:02:46;;;;;;;135.88;46.20;;;;;;;;;;4966075;28;20065;-59
2023/02/10 10:05:21;;;;;;;175.65;58.10;;;;;;;;;;4966765;28;20073;-59
2023/02/10 10:07:48;;;;;;;196.02;59.28;;;;;;;;;;4966744;28;20034;-59
2023/02/10 10:10:18;;;;;;;135.50;50.55;;;;;;;;;;4966622;28;20494;-61
2023/02/10 10:12:43;;;;;;;118.53;43.45;;;;;;;;;;4965690;28;20051;-58
2023/02/10 10:15:15;;;;;;;126.38;45.10;;;;;;;;;;4966093;28;20026;-60
2023/02/10 10:17:48;;;;;;;110.70;42.55;;;;;;;;;;4966765;28;20035;-60
2023/02/10 10:20:37;;;;;;;109.57;40.15;;;;;;;;;;4967531;28;20049;-59
2023/02/10 10:23:02;;;;;;;119.15;45.05;;;;;;;;;;4965820;28;20554;-60
2023/02/10 10:25:33;;;;;;;112.78;41.65;;;;;;;;;;4965551;28;20023;-59
2023/02/10 10:28:17;;;;;;;106.07;39.30;;;;;;;;;;4965365;28;20026;-60
2023/02/10 10:30:45;;;;;;;125.47;51.28;;;;;;;;;;4967181;28;20674;-59
2023/02/10 10:33:21;;;;;;;100.05;37.75;;;;;;;;;;4965726;28;20038;-59
2023/02/10 10:35:47;;;;;;;111.70;40.15;;;;;;;;;;4968551;28;20369;-62
2023/02/10 10:38:17;;;;;;;107.38;41.00;;;;;;;;;;4965101;28;20042;-59
2023/02/10 10:40:44;;;;;;;97.85;37.60;;;;;;;;;;4964694;28;20042;-60
2023/02/10 10:43:12;;;;;;;95.95;35.17;;;;;;;;;;4966220;28;20035;-59
2023/02/10 10:45:45;;;;;;;101.18;37.03;;;;;;;;;;4966201;28;20035;-59
2023/02/10 10:48:26;;;;;;;97.20;35.78;;;;;;;;;;4967736;28;20035;-60
2023/02/10 10:50:58;;;;;;;98.22;35.75;;;;;;;;;;4966103;28;20117;-59
2023/02/10 10:53:41;;;;;;;93.93;34.42;;;;;;;;;;4963864;28;20062;-60
2023/02/10 10:56:13;;;;;;;105.53;37.25;;;;;;;;;;4965453;28;20034;-60
2023/02/10 10:58:40;;;;;;;95.28;35.88;;;;;;;;;;4963742;28;20045;-59
2023/02/10 11:01:05;;;;;;;90.53;34.65;;;;;;;;;;4964781;28;20435;-60
2023/02/10 11:03:31;;;;;;;91.80;33.90;;;;;;;;;;4965202;28;20035;-59
2023/02/10 11:06:09;;;;;;;87.72;30.77;;;;;;;;;;4962877;28;20031;-59
2023/02/10 11:08:41;;;;;;;84.82;32.55;;;;;;;;;;4957782;28;20177;-59
2023/02/10 11:11:09;;;;;;;94.70;32.15;;;;;;;;;;4966066;28;20038;-59
2023/02/10 11:13:36;;;;;;;80.32;32.25;;;;;;;;;;4964570;28;20034;-59
2023/02/10 11:16:07;;;;;;;72.18;30.30;;;;;;;;;;4965683;28;20026;-59
2023/02/10 11:18:32;;;;;;;87.65;31.20;;;;;;;;;;4960761;28;20030;-60
2023/02/10 11:20:58;;;;;;;85.00;30.90;;;;;;;;;;4961884;28;20053;-60
2023/02/10 11:23:25;;;;;;;86.15;33.42;;;;;;;;;;4965240;28;20496;-60
2023/02/10 11:25:56;;;;;;;79.43;32.58;;;;;;;;;;4965505;28;20403;-60
2023/02/10 11:28:24;;;;;;;78.38;31.42;;;;;;;;;;4965037;28;20035;-60
2023/02/10 11:30:55;;;;;;;76.30;32.42;;;;;;;;;;4966429;28;20070;-60
2023/02/10 11:33:25;;;;;;;84.05;31.65;;;;;;;;;;4958261;28;20113;-60
2023/02/10 11:35:54;;;;;;;75.93;29.88;;;;;;;;;;4967068;28;20026;-59
2023/02/10 11:38:21;;;;;;;77.38;30.98;;;;;;;;;;4968326;28;20038;-61
2023/02/10 11:40:57;;;;;;;72.70;29.67;;;;;;;;;;4967137;28;20039;-60
2023/02/10 11:43:26;;;;;;;78.75;31.27;;;;;;;;;;4965775;28;20031;-61
2023/02/10 11:45:56;;;;;;;73.32;28.55;;;;;;;;;;4967073;28;20041;-60
2023/02/10 11:48:22;;;;;;;76.78;28.52;;;;;;;;;;4967612;28;20069;-60
2023/02/10 11:50:59;;;;;;;68.07;28.35;;;;;;;;;;4966714;28;20039;-60
2023/02/10 11:53:26;;;;;;;65.10;28.00;;;;;;;;;;4968244;28;20031;-62
2023/02/10 11:55:56;;;;;;;70.28;28.73;;;;;;;;;;4965958;28;20031;-59
2023/02/10 12:01:24;;;;;;;68.07;28.35;;;;;;;;;;4961007;28;20732;-60
2023/02/10 12:03:52;;;;;;;60.42;28.17;;;;;;;;;;4968548;28;20027;-60
2023/02/10 12:06:20;;;;;;;62.67;27.58;;;;;;;;;;4970099;28;20081;-60
2023/02/10 12:09:14;;;;;;;68.45;29.90;;;;;;;;;;4968963;28;20141;-60
2023/02/10 12:11:43;;;;;;;63.38;29.17;;;;;;;;;;4960023;28;20066;-59
2023/02/10 12:14:14;;;;;;;56.20;28.05;;;;;;;;;;4965702;28;20667;-60
2023/02/10 12:16:48;;;;;;;62.17;28.58;;;;;;;;;;4968436;28;20054;-59
2023/02/10 12:19:32;;;;;;;57.65;28.52;;;;;;;;;;4965463;28;20066;-60
2023/02/10 12:22:06;;;;;;;62.00;26.88;;;;;;;;;;4962998;28;20513;-60
2023/02/10 12:25:04;;;;;;;63.45;27.58;;;;;;;;;;4965163;28;20045;-60
2023/02/10 12:27:41;;;;;;;61.42;28.50;;;;;;;;;;4934891;28;20043;-59
2023/02/10 12:30:06;;;;;;;54.33;26.92;;;;;;;;;;4962250;28;20043;-59
2023/02/10 12:32:47;;;;;;;60.78;29.63;;;;;;;;;;4964545;28;20066;-59
2023/02/10 12:35:26;;;;;;;56.15;28.60;;;;;;;;;;4964723;28;20122;-59
2023/02/10 12:38:10;;;;;;;62.40;28.60;;;;;;;;;;4966110;28;20038;-60
2023/02/10 12:40:42;;;;;;;61.58;29.85;;;;;;;;;;4982072;28;20547;-61
2023/02/10 12:43:40;;;;;;;58.08;27.52;;;;;;;;;;4968115;28;20472;-60
2023/02/10 12:46:05;;;;;;;50.88;26.52;;;;;;;;;;4923745;28;20071;-60
2023/02/10 12:48:30;;;;;;;53.50;27.98;;;;;;;;;;4968884;28;20081;-60
2023/02/10 12:50:56;;;;;;;54.35;28.42;;;;;;;;;;4968935;28;20043;-61
2023/02/10 12:53:27;;;;;;;77.72;32.03;;;;;;;;;;4969799;28;20026;-59
2023/02/10 12:55:58;;;;;;;61.35;29.38;;;;;;;;;;4982406;28;20493;-60
2023/02/10 12:58:30;;;;;;;54.00;28.23;;;;;;;;;;4962622;28;20082;-60
2023/02/10 13:01:06;;;;;;;52.35;27.17;;;;;;;;;;4964252;28;20077;-60
2023/02/10 13:03:32;;;;;;;48.90;26.92;;;;;;;;;;4964496;28;20558;-59
2023/02/10 13:06:18;;;;;;;61.03;28.88;;;;;;;;;;4965558;28;20058;-59
2023/02/10 13:08:53;;;;;;;54.03;27.83;;;;;;;;;;4952417;28;20696;-60
2023/02/10 13:11:26;;;;;;;49.90;27.05;;;;;;;;;;4964991;28;20046;-59
2023/02/10 13:13:53;;;;;;;47.42;26.10;;;;;;;;;;4963514;28;20047;-59
2023/02/10 13:16:20;;;;;;;49.13;25.02;;;;;;;;;;4965708;28;20039;-59
2023/02/10 13:18:55;;;;;;;42.55;25.08;;;;;;;;;;4964590;28;20058;-59
2023/02/10 13:21:27;;;;;;;49.03;24.63;;;;;;;;;;4966086;28;20113;-59
2023/02/10 13:23:52;;;;;;;49.40;26.27;;;;;;;;;;4966618;28;20031;-59
2023/02/10 13:26:36;;;;;;;48.08;27.00;;;;;;;;;;4969804;28;20035;-59
2023/02/10 13:29:18;;;;;;;55.47;26.70;;;;;;;;;;4965496;28;20030;-58
2023/02/10 13:31:50;;;;;;;42.92;24.73;;;;;;;;;;4966196;28;20305;-59
2023/02/10 13:34:15;;;;;;;46.58;26.45;;;;;;;;;;4969972;28;20030;-59
2023/02/10 13:36:42;;;;;;;48.47;26.25;;;;;;;;;;4968223;28;20466;-59
2023/02/10 13:39:15;;;;;;;55.80;27.15;;;;;;;;;;4967540;28;20031;-58
2023/02/10 13:41:44;;;;;;;42.92;25.58;;;;;;;;;;4965818;28;20039;-59
2023/02/10 13:44:19;;;;;;;44.70;25.00;;;;;;;;;;4962680;28;20126;-58
2023/02/10 13:46:46;;;;;;;45.88;24.48;;;;;;;;;;4965182;28;20069;-60
2023/02/10 13:49:15;;;;;;;42.40;25.02;;;;;;;;;;4963359;28;20127;-58
2023/02/10 13:51:40;;;;;;;42.20;25.05;;;;;;;;;;4957540;28;20090;-59
2023/02/10 13:54:05;;;;;;;43.92;24.30;;;;;;;;;;4957870;28;20058;-59
2023/02/10 13:56:33;;;;;;;48.35;25.90;;;;;;;;;;4965816;28;20085;-60
2023/02/10 13:59:07;;;;;;;47.00;25.02;;;;;;;;;;4965103;28;20031;-59
2023/02/10 14:01:32;;;;;;;43.15;24.88;;;;;;;;;;4964523;28;20039;-60
2023/02/10 14:03:58;;;;;;;51.67;26.15;;;;;;;;;;4966359;28;20395;-60
2023/02/10 14:06:36;;;;;;;43.78;25.70;;;;;;;;;;4964446;28;20146;-59
2023/02/10 14:09:06;;;;;;;44.42;25.60;;;;;;;;;;4951268;28;20034;-60
2023/02/10 14:11:42;;;;;;;40.30;23.60;;;;;;;;;;4954213;28;20053;-60
2023/02/10 14:14:26;;;;;;;38.17;21.92;;;;;;;;;;4953891;28;20027;-58
2023/02/10 14:17:00;;;;;;;38.38;22.08;;;;;;;;;;4948671;28;20038;-58
2023/02/10 14:19:45;;;;;;;44.28;25.25;;;;;;;;;;4960457;28;20070;-59
2023/02/10 14:22:29;;;;;;;41.03;22.17;;;;;;;;;;4962889;28;20895;-58
2023/02/10 14:24:58;;;;;;;38.63;23.52;;;;;;;;;;4962119;28;20496;-59
2023/02/10 14:27:25;;;;;;;37.00;22.67;;;;;;;;;;4962758;28;20041;-58